sensor_id;sensor_type;location;lat;lon;timestamp;temperature;humidity
83729;DHT22;73707;56.480;-2.840;2023-12-22T00:01:41;8.20;98.20
83729;DHT22;73707;56.480;-2.840;2023-12-22T00:04:07;8.20;97.90
83729;DHT22;73707;56.480;-2.840;2023-12-22T00:06:33;8.30;98.20
83729;DHT22;73707;56.480;-2.840;2023-12-22T00:08:59;8.20;98.20
83729;DHT22;73707;56.480;-2.840;2023-12-22T00:11:25;8.20;98.00
83729;DHT22;73707;56.480;-2.840;2023-12-22T00:13:51;8.30;98.30
83729;DHT22;73707;56.480;-2.840;2023-12-22T00:16:17;8.20;97.90
83729;DHT22;73707;56.480;-2.840;2023-12-22T00:18:42;8.20;98.20
83729;DHT22;73707;56.480;-2.840;2023-12-22T00:21:11;8.20;98.60
83729;DHT22;73707;56.480;-2.840;2023-12-22T00:23:37;8.20;98.40
83729;DHT22;73707;56.480;-2.840;2023-12-22T00:26:04;8.20;98.40
83729;DHT22;73707;56.480;-2.840;2023-12-22T00:28:30;8.20;98.30
83729;DHT22;73707;56.480;-2.840;2023-12-22T00:30:57;8.30;98.20
83729;DHT22;73707;56.480;-2.840;2023-12-22T00:33:24;8.30;98.10
83729;DHT22;73707;56.480;-2.840;2023-12-22T00:35:49;8.20;98.50
83729;DHT22;73707;56.480;-2.840;2023-12-22T00:38:15;8.20;98.20
83729;DHT22;73707;56.480;-2.840;2023-12-22T00:40:43;8.20;98.30
83729;DHT22;73707;56.480;-2.840;2023-12-22T00:43:09;8.20;98.30
83729;DHT22;73707;56.480;-2.840;2023-12-22T00:45:35;8.30;98.30
83729;DHT22;73707;56.480;-2.840;2023-12-22T00:48:00;8.30;98.50
83729;DHT22;73707;56.480;-2.840;2023-12-22T00:50:26;8.30;98.50
83729;DHT22;73707;56.480;-2.840;2023-12-22T00:52:52;8.30;98.50
83729;DHT22;73707;56.480;-2.840;2023-12-22T00:55:17;8.30;98.50
83729;DHT22;73707;56.480;-2.840;2023-12-22T00:57:43;8.30;98.40
83729;DHT22;73707;56.480;-2.840;2023-12-22T01:00:09;8.30;98.20
83729;DHT22;73707;56.480;-2.840;2023-12-22T01:02:37;8.30;98.00
83729;DHT22;73707;56.480;-2.840;2023-12-22T01:05:03;8.30;98.50
83729;DHT22;73707;56.480;-2.840;2023-12-22T01:07:29;8.40;98.50
83729;DHT22;73707;56.480;-2.840;2023-12-22T01:09:55;8.40;98.70
83729;DHT22;73707;56.480;-2.840;2023-12-22T01:12:20;8.40;98.80
83729;DHT22;73707;56.480;-2.840;2023-12-22T01:14:46;8.50;98.80
83729;DHT22;73707;56.480;-2.840;2023-12-22T01:17:12;8.50;98.90
83729;DHT22;73707;56.480;-2.840;2023-12-22T01:19:37;8.50;99.00
83729;DHT22;73707;56.480;-2.840;2023-12-22T01:22:03;8.50;99.10
83729;DHT22;73707;56.480;-2.840;2023-12-22T01:24:29;8.50;99.10
83729;DHT22;73707;56.480;-2.840;2023-12-22T01:26:54;8.50;99.00
83729;DHT22;73707;56.480;-2.840;2023-12-22T01:29:20;8.50;98.90
83729;DHT22;73707;56.480;-2.840;2023-12-22T01:31:46;8.50;98.70
83729;DHT22;73707;56.480;-2.840;2023-12-22T01:34:11;8.50;98.70
83729;DHT22;73707;56.480;-2.840;2023-12-22T01:36:37;8.50;98.20
83729;DHT22;73707;56.480;-2.840;2023-12-22T01:39:03;8.50;98.30
83729;DHT22;73707;56.480;-2.840;2023-12-22T01:41:29;8.50;98.20
83729;DHT22;73707;56.480;-2.840;2023-12-22T01:43:55;8.50;98.40
83729;DHT22;73707;56.480;-2.840;2023-12-22T01:46:21;8.50;98.50
83729;DHT22;73707;56.480;-2.840;2023-12-22T01:48:47;8.50;98.70
83729;DHT22;73707;56.480;-2.840;2023-12-22T01:51:13;8.50;98.80
83729;DHT22;73707;56.480;-2.840;2023-12-22T01:53:39;8.50;98.80
83729;DHT22;73707;56.480;-2.840;2023-12-22T01:56:05;8.50;98.50
83729;DHT22;73707;56.480;-2.840;2023-12-22T01:58:32;8.50;98.60
83729;DHT22;73707;56.480;-2.840;2023-12-22T02:00:59;8.50;98.50
83729;DHT22;73707;56.480;-2.840;2023-12-22T02:03:27;8.50;98.30
83729;DHT22;73707;56.480;-2.840;2023-12-22T02:05:53;8.50;98.40
83729;DHT22;73707;56.480;-2.840;2023-12-22T02:08:18;8.50;98.60
83729;DHT22;73707;56.480;-2.840;2023-12-22T02:10:46;8.50;98.60
83729;DHT22;73707;56.480;-2.840;2023-12-22T02:13:12;8.50;98.70
83729;DHT22;73707;56.480;-2.840;2023-12-22T02:15:39;8.60;98.80
83729;DHT22;73707;56.480;-2.840;2023-12-22T02:18:07;8.60;98.80
83729;DHT22;73707;56.480;-2.840;2023-12-22T02:20:34;8.60;99.00
83729;DHT22;73707;56.480;-2.840;2023-12-22T02:23:00;8.60;99.00
83729;DHT22;73707;56.480;-2.840;2023-12-22T02:25:26;8.60;99.10
83729;DHT22;73707;56.480;-2.840;2023-12-22T02:28:01;8.60;99.20
83729;DHT22;73707;56.480;-2.840;2023-12-22T02:31:02;8.60;99.10
83729;DHT22;73707;56.480;-2.840;2023-12-22T02:33:29;8.60;99.20
83729;DHT22;73707;56.480;-2.840;2023-12-22T02:36:03;8.60;99.20
83729;DHT22;73707;56.480;-2.840;2023-12-22T02:38:31;8.60;99.20
83729;DHT22;73707;56.480;-2.840;2023-12-22T02:40:58;8.60;99.20
83729;DHT22;73707;56.480;-2.840;2023-12-22T02:43:24;8.60;99.30
83729;DHT22;73707;56.480;-2.840;2023-12-22T02:45:50;8.60;99.20
83729;DHT22;73707;56.480;-2.840;2023-12-22T02:48:16;8.60;99.40
83729;DHT22;73707;56.480;-2.840;2023-12-22T02:50:42;8.60;99.40
83729;DHT22;73707;56.480;-2.840;2023-12-22T02:53:08;8.60;99.40
83729;DHT22;73707;56.480;-2.840;2023-12-22T02:55:33;8.60;99.40
83729;DHT22;73707;56.480;-2.840;2023-12-22T02:57:59;8.60;99.40
83729;DHT22;73707;56.480;-2.840;2023-12-22T03:00:25;8.60;99.40
83729;DHT22;73707;56.480;-2.840;2023-12-22T03:02:50;8.60;99.40
83729;DHT22;73707;56.480;-2.840;2023-12-22T03:05:16;8.70;99.60
83729;DHT22;73707;56.480;-2.840;2023-12-22T03:07:42;8.70;99.50
83729;DHT22;73707;56.480;-2.840;2023-12-22T03:10:08;8.70;99.60
83729;DHT22;73707;56.480;-2.840;2023-12-22T03:12:33;8.70;99.70
83729;DHT22;73707;56.480;-2.840;2023-12-22T03:14:59;8.80;99.60
83729;DHT22;73707;56.480;-2.840;2023-12-22T03:17:25;8.80;99.50
83729;DHT22;73707;56.480;-2.840;2023-12-22T03:19:50;8.80;98.50
83729;DHT22;73707;56.480;-2.840;2023-12-22T03:22:16;8.80;99.30
83729;DHT22;73707;56.480;-2.840;2023-12-22T03:24:41;8.80;99.70
83729;DHT22;73707;56.480;-2.840;2023-12-22T03:27:07;8.90;99.60
83729;DHT22;73707;56.480;-2.840;2023-12-22T03:29:33;8.90;99.50
83729;DHT22;73707;56.480;-2.840;2023-12-22T03:31:58;8.90;99.50
83729;DHT22;73707;56.480;-2.840;2023-12-22T03:34:24;8.90;99.60
83729;DHT22;73707;56.480;-2.840;2023-12-22T03:36:50;8.90;99.60
83729;DHT22;73707;56.480;-2.840;2023-12-22T03:39:16;8.90;99.60
83729;DHT22;73707;56.480;-2.840;2023-12-22T03:41:41;8.90;99.60
83729;DHT22;73707;56.480;-2.840;2023-12-22T03:44:07;8.90;99.60
83729;DHT22;73707;56.480;-2.840;2023-12-22T03:46:33;8.90;99.70
83729;DHT22;73707;56.480;-2.840;2023-12-22T03:48:58;8.90;99.70
83729;DHT22;73707;56.480;-2.840;2023-12-22T03:51:24;8.90;99.70
83729;DHT22;73707;56.480;-2.840;2023-12-22T03:53:50;8.80;99.70
83729;DHT22;73707;56.480;-2.840;2023-12-22T03:56:15;8.80;99.70
83729;DHT22;73707;56.480;-2.840;2023-12-22T03:58:41;8.80;99.70
83729;DHT22;73707;56.480;-2.840;2023-12-22T04:01:07;8.80;99.70
83729;DHT22;73707;56.480;-2.840;2023-12-22T04:03:33;8.80;99.70
83729;DHT22;73707;56.480;-2.840;2023-12-22T04:06:03;8.80;99.70
83729;DHT22;73707;56.480;-2.840;2023-12-22T04:08:29;8.80;99.70
83729;DHT22;73707;56.480;-2.840;2023-12-22T04:10:55;8.70;99.50
83729;DHT22;73707;56.480;-2.840;2023-12-22T04:13:20;8.70;99.70
83729;DHT22;73707;56.480;-2.840;2023-12-22T04:15:46;8.70;99.70
83729;DHT22;73707;56.480;-2.840;2023-12-22T04:18:11;8.70;99.70
83729;DHT22;73707;56.480;-2.840;2023-12-22T04:20:37;8.70;99.70
83729;DHT22;73707;56.480;-2.840;2023-12-22T04:23:03;8.70;99.70
83729;DHT22;73707;56.480;-2.840;2023-12-22T04:25:29;8.60;99.70
83729;DHT22;73707;56.480;-2.840;2023-12-22T04:27:54;8.60;99.70
83729;DHT22;73707;56.480;-2.840;2023-12-22T04:30:20;8.60;99.70
83729;DHT22;73707;56.480;-2.840;2023-12-22T04:32:46;8.60;99.80
83729;DHT22;73707;56.480;-2.840;2023-12-22T04:35:14;8.60;99.80
83729;DHT22;73707;56.480;-2.840;2023-12-22T04:37:40;8.60;99.80
83729;DHT22;73707;56.480;-2.840;2023-12-22T04:40:06;8.60;99.80
83729;DHT22;73707;56.480;-2.840;2023-12-22T04:42:32;8.60;99.00
83729;DHT22;73707;56.480;-2.840;2023-12-22T04:44:57;8.60;99.60
83729;DHT22;73707;56.480;-2.840;2023-12-22T04:47:24;8.50;99.70
83729;DHT22;73707;56.480;-2.840;2023-12-22T04:49:50;8.50;99.80
83729;DHT22;73707;56.480;-2.840;2023-12-22T04:52:15;8.50;99.70
83729;DHT22;73707;56.480;-2.840;2023-12-22T04:54:41;8.50;99.80
83729;DHT22;73707;56.480;-2.840;2023-12-22T04:57:07;8.40;99.90
83729;DHT22;73707;56.480;-2.840;2023-12-22T04:59:32;8.40;99.80
83729;DHT22;73707;56.480;-2.840;2023-12-22T05:01:58;8.50;99.90
83729;DHT22;73707;56.480;-2.840;2023-12-22T05:04:24;8.40;99.90
83729;DHT22;73707;56.480;-2.840;2023-12-22T05:06:49;8.40;99.90
83729;DHT22;73707;56.480;-2.840;2023-12-22T05:09:16;8.40;99.90
83729;DHT22;73707;56.480;-2.840;2023-12-22T05:11:41;8.40;99.90
83729;DHT22;73707;56.480;-2.840;2023-12-22T05:14:07;8.40;99.90
83729;DHT22;73707;56.480;-2.840;2023-12-22T05:16:33;8.40;99.90
83729;DHT22;73707;56.480;-2.840;2023-12-22T05:18:59;8.40;99.90
83729;DHT22;73707;56.480;-2.840;2023-12-22T05:21:25;8.30;99.90
83729;DHT22;73707;56.480;-2.840;2023-12-22T05:23:51;8.40;99.90
83729;DHT22;73707;56.480;-2.840;2023-12-22T05:26:18;8.30;99.90
83729;DHT22;73707;56.480;-2.840;2023-12-22T05:28:43;8.30;99.90
83729;DHT22;73707;56.480;-2.840;2023-12-22T05:31:09;8.30;99.90
83729;DHT22;73707;56.480;-2.840;2023-12-22T05:33:35;8.30;99.90
83729;DHT22;73707;56.480;-2.840;2023-12-22T05:36:01;8.30;99.90
83729;DHT22;73707;56.480;-2.840;2023-12-22T05:38:26;8.30;99.90
83729;DHT22;73707;56.480;-2.840;2023-12-22T05:40:52;8.30;99.90
83729;DHT22;73707;56.480;-2.840;2023-12-22T05:43:18;8.30;99.90
83729;DHT22;73707;56.480;-2.840;2023-12-22T05:45:43;8.30;99.90
83729;DHT22;73707;56.480;-2.840;2023-12-22T05:48:09;8.30;99.90
83729;DHT22;73707;56.480;-2.840;2023-12-22T05:50:34;8.30;99.90
83729;DHT22;73707;56.480;-2.840;2023-12-22T05:53:00;8.20;99.90
83729;DHT22;73707;56.480;-2.840;2023-12-22T05:55:26;8.20;99.90
83729;DHT22;73707;56.480;-2.840;2023-12-22T05:57:51;8.20;99.90
83729;DHT22;73707;56.480;-2.840;2023-12-22T06:00:17;8.10;99.90
83729;DHT22;73707;56.480;-2.840;2023-12-22T06:02:43;8.10;99.90
83729;DHT22;73707;56.480;-2.840;2023-12-22T06:05:08;8.10;99.90
83729;DHT22;73707;56.480;-2.840;2023-12-22T06:07:34;8.10;99.90
83729;DHT22;73707;56.480;-2.840;2023-12-22T06:10:00;8.00;99.90
83729;DHT22;73707;56.480;-2.840;2023-12-22T06:12:25;8.00;99.90
83729;DHT22;73707;56.480;-2.840;2023-12-22T06:14:51;8.00;99.90
83729;DHT22;73707;56.480;-2.840;2023-12-22T06:17:17;8.00;99.90
83729;DHT22;73707;56.480;-2.840;2023-12-22T06:19:42;8.00;99.90
83729;DHT22;73707;56.480;-2.840;2023-12-22T06:22:08;8.00;99.90
83729;DHT22;73707;56.480;-2.840;2023-12-22T06:24:35;7.90;99.90
83729;DHT22;73707;56.480;-2.840;2023-12-22T06:27:01;7.90;99.90
83729;DHT22;73707;56.480;-2.840;2023-12-22T06:29:27;7.90;99.90
83729;DHT22;73707;56.480;-2.840;2023-12-22T06:31:52;7.90;99.90
83729;DHT22;73707;56.480;-2.840;2023-12-22T06:34:18;7.90;99.90
83729;DHT22;73707;56.480;-2.840;2023-12-22T06:36:44;7.90;99.90
83729;DHT22;73707;56.480;-2.840;2023-12-22T06:39:10;7.80;99.90
83729;DHT22;73707;56.480;-2.840;2023-12-22T06:41:36;7.80;99.90
83729;DHT22;73707;56.480;-2.840;2023-12-22T06:44:01;7.80;99.90
83729;DHT22;73707;56.480;-2.840;2023-12-22T06:46:29;7.80;99.90
83729;DHT22;73707;56.480;-2.840;2023-12-22T06:48:56;7.80;99.90
83729;DHT22;73707;56.480;-2.840;2023-12-22T06:51:27;7.80;99.90
83729;DHT22;73707;56.480;-2.840;2023-12-22T06:53:54;7.70;99.90
83729;DHT22;73707;56.480;-2.840;2023-12-22T06:56:24;7.80;99.90
83729;DHT22;73707;56.480;-2.840;2023-12-22T06:58:51;7.80;99.90
83729;DHT22;73707;56.480;-2.840;2023-12-22T07:01:29;7.80;99.90
83729;DHT22;73707;56.480;-2.840;2023-12-22T07:03:55;7.80;99.90
83729;DHT22;73707;56.480;-2.840;2023-12-22T07:06:22;7.80;99.90
83729;DHT22;73707;56.480;-2.840;2023-12-22T07:11:51;7.90;99.90
83729;DHT22;73707;56.480;-2.840;2023-12-22T07:14:20;7.90;99.90
83729;DHT22;73707;56.480;-2.840;2023-12-22T07:16:46;7.90;99.90
83729;DHT22;73707;56.480;-2.840;2023-12-22T07:19:11;7.90;99.90
83729;DHT22;73707;56.480;-2.840;2023-12-22T07:21:40;7.90;99.90
83729;DHT22;73707;56.480;-2.840;2023-12-22T07:24:07;8.00;99.90
83729;DHT22;73707;56.480;-2.840;2023-12-22T07:26:32;8.00;99.90
83729;DHT22;73707;56.480;-2.840;2023-12-22T07:28:58;8.00;99.90
83729;DHT22;73707;56.480;-2.840;2023-12-22T07:31:24;8.00;99.90
83729;DHT22;73707;56.480;-2.840;2023-12-22T07:33:50;8.00;99.90
83729;DHT22;73707;56.480;-2.840;2023-12-22T07:36:16;8.00;99.90
83729;DHT22;73707;56.480;-2.840;2023-12-22T07:38:43;8.10;99.90
83729;DHT22;73707;56.480;-2.840;2023-12-22T07:41:09;8.00;99.90
83729;DHT22;73707;56.480;-2.840;2023-12-22T07:43:36;8.00;99.90
83729;DHT22;73707;56.480;-2.840;2023-12-22T07:46:01;8.00;99.90
83729;DHT22;73707;56.480;-2.840;2023-12-22T07:48:27;8.00;99.90
83729;DHT22;73707;56.480;-2.840;2023-12-22T07:50:53;8.00;99.90
83729;DHT22;73707;56.480;-2.840;2023-12-22T07:53:19;8.10;99.90
83729;DHT22;73707;56.480;-2.840;2023-12-22T07:55:45;8.10;99.90
83729;DHT22;73707;56.480;-2.840;2023-12-22T07:58:12;8.10;99.90
83729;DHT22;73707;56.480;-2.840;2023-12-22T08:00:38;8.10;99.90
83729;DHT22;73707;56.480;-2.840;2023-12-22T08:03:04;8.10;99.90
83729;DHT22;73707;56.480;-2.840;2023-12-22T08:05:29;8.10;99.90
83729;DHT22;73707;56.480;-2.840;2023-12-22T08:07:55;8.10;99.90
83729;DHT22;73707;56.480;-2.840;2023-12-22T08:10:21;8.10;99.90
83729;DHT22;73707;56.480;-2.840;2023-12-22T08:12:47;8.20;99.90
83729;DHT22;73707;56.480;-2.840;2023-12-22T08:15:13;8.20;99.90
83729;DHT22;73707;56.480;-2.840;2023-12-22T08:17:48;8.20;99.90
83729;DHT22;73707;56.480;-2.840;2023-12-22T08:20:18;8.20;99.90
83729;DHT22;73707;56.480;-2.840;2023-12-22T08:22:48;8.20;99.90
83729;DHT22;73707;56.480;-2.840;2023-12-22T08:25:15;8.20;99.90
83729;DHT22;73707;56.480;-2.840;2023-12-22T08:27:41;8.20;99.90
83729;DHT22;73707;56.480;-2.840;2023-12-22T08:30:08;8.20;99.90
83729;DHT22;73707;56.480;-2.840;2023-12-22T08:32:34;8.30;99.90
83729;DHT22;73707;56.480;-2.840;2023-12-22T08:34:59;8.30;99.90
83729;DHT22;73707;56.480;-2.840;2023-12-22T08:37:25;8.30;99.90
83729;DHT22;73707;56.480;-2.840;2023-12-22T08:39:51;8.30;99.90
83729;DHT22;73707;56.480;-2.840;2023-12-22T08:42:18;8.30;99.90
83729;DHT22;73707;56.480;-2.840;2023-12-22T08:44:44;8.30;99.90
83729;DHT22;73707;56.480;-2.840;2023-12-22T08:47:09;8.30;99.90
83729;DHT22;73707;56.480;-2.840;2023-12-22T08:49:35;8.30;99.90
83729;DHT22;73707;56.480;-2.840;2023-12-22T08:52:01;8.30;99.90
83729;DHT22;73707;56.480;-2.840;2023-12-22T08:54:29;8.30;99.90
83729;DHT22;73707;56.480;-2.840;2023-12-22T08:56:55;8.40;99.90
83729;DHT22;73707;56.480;-2.840;2023-12-22T08:59:20;8.30;99.90
83729;DHT22;73707;56.480;-2.840;2023-12-22T09:01:46;8.40;99.90
83729;DHT22;73707;56.480;-2.840;2023-12-22T09:04:12;8.40;99.90
83729;DHT22;73707;56.480;-2.840;2023-12-22T09:06:38;8.40;99.90
83729;DHT22;73707;56.480;-2.840;2023-12-22T09:09:03;8.40;99.90
83729;DHT22;73707;56.480;-2.840;2023-12-22T09:11:29;8.50;99.90
83729;DHT22;73707;56.480;-2.840;2023-12-22T09:13:55;8.50;99.90
83729;DHT22;73707;56.480;-2.840;2023-12-22T09:16:22;8.50;99.90
83729;DHT22;73707;56.480;-2.840;2023-12-22T09:18:48;8.50;99.90
83729;DHT22;73707;56.480;-2.840;2023-12-22T09:21:15;8.60;99.90
83729;DHT22;73707;56.480;-2.840;2023-12-22T09:23:41;8.60;99.90
83729;DHT22;73707;56.480;-2.840;2023-12-22T09:26:10;8.60;99.90
83729;DHT22;73707;56.480;-2.840;2023-12-22T09:28:35;8.70;99.90
83729;DHT22;73707;56.480;-2.840;2023-12-22T09:31:01;8.70;99.90
83729;DHT22;73707;56.480;-2.840;2023-12-22T09:33:27;8.70;99.90
83729;DHT22;73707;56.480;-2.840;2023-12-22T09:35:53;8.80;99.90
83729;DHT22;73707;56.480;-2.840;2023-12-22T09:38:19;8.80;99.90
83729;DHT22;73707;56.480;-2.840;2023-12-22T09:40:45;8.90;99.90
83729;DHT22;73707;56.480;-2.840;2023-12-22T09:43:14;8.80;99.90
83729;DHT22;73707;56.480;-2.840;2023-12-22T09:45:41;8.90;99.90
83729;DHT22;73707;56.480;-2.840;2023-12-22T09:48:07;8.90;99.90
83729;DHT22;73707;56.480;-2.840;2023-12-22T09:50:33;8.90;99.90
83729;DHT22;73707;56.480;-2.840;2023-12-22T09:53:01;8.90;99.90
83729;DHT22;73707;56.480;-2.840;2023-12-22T09:55:30;9.00;99.90
83729;DHT22;73707;56.480;-2.840;2023-12-22T09:57:56;9.00;99.90
83729;DHT22;73707;56.480;-2.840;2023-12-22T10:00:24;9.00;99.90
83729;DHT22;73707;56.480;-2.840;2023-12-22T10:02:52;9.10;99.90
83729;DHT22;73707;56.480;-2.840;2023-12-22T10:05:18;9.10;99.90
83729;DHT22;73707;56.480;-2.840;2023-12-22T10:07:46;9.10;99.90
83729;DHT22;73707;56.480;-2.840;2023-12-22T10:10:12;9.10;99.90
83729;DHT22;73707;56.480;-2.840;2023-12-22T10:12:39;9.10;99.90
83729;DHT22;73707;56.480;-2.840;2023-12-22T10:15:08;9.20;99.90
83729;DHT22;73707;56.480;-2.840;2023-12-22T10:17:34;9.20;99.90
83729;DHT22;73707;56.480;-2.840;2023-12-22T10:20:01;9.20;99.90
83729;DHT22;73707;56.480;-2.840;2023-12-22T10:22:28;9.30;99.90
83729;DHT22;73707;56.480;-2.840;2023-12-22T10:24:54;9.30;99.90
83729;DHT22;73707;56.480;-2.840;2023-12-22T10:27:20;9.30;99.90
83729;DHT22;73707;56.480;-2.840;2023-12-22T10:29:55;9.30;99.90
83729;DHT22;73707;56.480;-2.840;2023-12-22T10:32:21;9.30;99.90
83729;DHT22;73707;56.480;-2.840;2023-12-22T10:34:48;9.30;99.90
83729;DHT22;73707;56.480;-2.840;2023-12-22T10:37:13;9.30;99.90
83729;DHT22;73707;56.480;-2.840;2023-12-22T10:39:39;9.30;99.90
83729;DHT22;73707;56.480;-2.840;2023-12-22T10:42:06;9.40;99.90
83729;DHT22;73707;56.480;-2.840;2023-12-22T10:44:32;9.40;99.90
83729;DHT22;73707;56.480;-2.840;2023-12-22T10:46:58;9.40;99.90
83729;DHT22;73707;56.480;-2.840;2023-12-22T10:49:24;9.40;99.90
83729;DHT22;73707;56.480;-2.840;2023-12-22T10:51:51;9.50;99.90
83729;DHT22;73707;56.480;-2.840;2023-12-22T10:54:17;9.50;99.90
83729;DHT22;73707;56.480;-2.840;2023-12-22T10:56:43;9.50;99.90
83729;DHT22;73707;56.480;-2.840;2023-12-22T10:59:09;9.50;99.90
83729;DHT22;73707;56.480;-2.840;2023-12-22T11:01:38;9.60;99.90
83729;DHT22;73707;56.480;-2.840;2023-12-22T11:04:09;9.60;99.90
83729;DHT22;73707;56.480;-2.840;2023-12-22T11:06:36;9.60;99.90
83729;DHT22;73707;56.480;-2.840;2023-12-22T11:09:10;9.60;99.90
83729;DHT22;73707;56.480;-2.840;2023-12-22T11:11:40;9.60;99.90
83729;DHT22;73707;56.480;-2.840;2023-12-22T11:14:06;9.60;99.90
83729;DHT22;73707;56.480;-2.840;2023-12-22T11:16:34;9.60;99.90
83729;DHT22;73707;56.480;-2.840;2023-12-22T11:19:01;9.60;99.90
83729;DHT22;73707;56.480;-2.840;2023-12-22T11:21:28;9.60;99.90
83729;DHT22;73707;56.480;-2.840;2023-12-22T11:23:54;9.60;99.90
83729;DHT22;73707;56.480;-2.840;2023-12-22T11:26:23;9.70;99.90
83729;DHT22;73707;56.480;-2.840;2023-12-22T11:28:50;9.70;99.90
83729;DHT22;73707;56.480;-2.840;2023-12-22T11:31:19;9.70;99.90
83729;DHT22;73707;56.480;-2.840;2023-12-22T11:33:52;9.70;99.90
83729;DHT22;73707;56.480;-2.840;2023-12-22T11:36:18;9.70;99.90
83729;DHT22;73707;56.480;-2.840;2023-12-22T11:38:45;9.80;99.90
83729;DHT22;73707;56.480;-2.840;2023-12-22T11:41:17;9.80;99.90
83729;DHT22;73707;56.480;-2.840;2023-12-22T11:43:44;9.80;99.90
83729;DHT22;73707;56.480;-2.840;2023-12-22T11:46:10;9.80;99.90
83729;DHT22;73707;56.480;-2.840;2023-12-22T11:48:37;9.80;99.90
83729;DHT22;73707;56.480;-2.840;2023-12-22T11:51:12;9.90;99.90
83729;DHT22;73707;56.480;-2.840;2023-12-22T11:53:39;9.90;99.90
83729;DHT22;73707;56.480;-2.840;2023-12-22T11:56:05;9.90;99.90
83729;DHT22;73707;56.480;-2.840;2023-12-22T11:58:38;9.90;99.90
83729;DHT22;73707;56.480;-2.840;2023-12-22T12:01:10;9.90;99.90
83729;DHT22;73707;56.480;-2.840;2023-12-22T12:03:41;9.90;99.90
83729;DHT22;73707;56.480;-2.840;2023-12-22T12:08:39;10.00;99.90
83729;DHT22;73707;56.480;-2.840;2023-12-22T12:11:05;9.90;99.90
83729;DHT22;73707;56.480;-2.840;2023-12-22T12:13:33;10.00;99.90
83729;DHT22;73707;56.480;-2.840;2023-12-22T12:15:59;10.00;99.90
83729;DHT22;73707;56.480;-2.840;2023-12-22T12:18:30;10.00;99.90
83729;DHT22;73707;56.480;-2.840;2023-12-22T12:20:56;10.00;99.90
83729;DHT22;73707;56.480;-2.840;2023-12-22T12:23:25;10.00;99.90
83729;DHT22;73707;56.480;-2.840;2023-12-22T12:25:53;10.00;99.90
83729;DHT22;73707;56.480;-2.840;2023-12-22T12:28:25;10.00;99.90
83729;DHT22;73707;56.480;-2.840;2023-12-22T12:31:00;10.10;99.90
83729;DHT22;73707;56.480;-2.840;2023-12-22T12:33:26;10.10;99.90
83729;DHT22;73707;56.480;-2.840;2023-12-22T12:35:56;10.10;99.90
83729;DHT22;73707;56.480;-2.840;2023-12-22T12:38:45;10.10;99.90
83729;DHT22;73707;56.480;-2.840;2023-12-22T12:41:14;10.10;99.90
83729;DHT22;73707;56.480;-2.840;2023-12-22T12:43:42;10.10;99.90
83729;DHT22;73707;56.480;-2.840;2023-12-22T12:46:11;10.20;99.90
83729;DHT22;73707;56.480;-2.840;2023-12-22T12:48:36;10.20;99.90
83729;DHT22;73707;56.480;-2.840;2023-12-22T12:51:03;10.30;99.90
83729;DHT22;73707;56.480;-2.840;2023-12-22T12:53:31;10.30;99.90
83729;DHT22;73707;56.480;-2.840;2023-12-22T12:55:58;10.30;99.90
83729;DHT22;73707;56.480;-2.840;2023-12-22T12:58:31;10.40;99.90
83729;DHT22;73707;56.480;-2.840;2023-12-22T13:01:10;10.40;99.90
83729;DHT22;73707;56.480;-2.840;2023-12-22T13:03:54;10.40;99.90
83729;DHT22;73707;56.480;-2.840;2023-12-22T13:06:21;10.40;99.90
83729;DHT22;73707;56.480;-2.840;2023-12-22T13:08:48;10.40;99.90
83729;DHT22;73707;56.480;-2.840;2023-12-22T13:11:14;10.40;99.90
83729;DHT22;73707;56.480;-2.840;2023-12-22T13:13:41;10.40;99.90
83729;DHT22;73707;56.480;-2.840;2023-12-22T13:16:08;10.50;99.90
83729;DHT22;73707;56.480;-2.840;2023-12-22T13:18:35;10.50;99.90
83729;DHT22;73707;56.480;-2.840;2023-12-22T13:21:01;10.40;99.90
83729;DHT22;73707;56.480;-2.840;2023-12-22T13:23:28;10.40;99.90
83729;DHT22;73707;56.480;-2.840;2023-12-22T13:25:54;10.40;99.90
83729;DHT22;73707;56.480;-2.840;2023-12-22T13:28:26;10.40;99.90
83729;DHT22;73707;56.480;-2.840;2023-12-22T13:30:53;10.40;99.90
83729;DHT22;73707;56.480;-2.840;2023-12-22T13:33:19;10.40;99.90
83729;DHT22;73707;56.480;-2.840;2023-12-22T13:35:45;10.40;99.90
83729;DHT22;73707;56.480;-2.840;2023-12-22T13:38:12;10.40;99.90
83729;DHT22;73707;56.480;-2.840;2023-12-22T13:40:38;10.30;99.90
83729;DHT22;73707;56.480;-2.840;2023-12-22T13:43:05;10.40;99.90
83729;DHT22;73707;56.480;-2.840;2023-12-22T13:45:32;10.30;99.90
83729;DHT22;73707;56.480;-2.840;2023-12-22T13:47:58;10.30;99.90
83729;DHT22;73707;56.480;-2.840;2023-12-22T13:50:24;10.30;99.90
83729;DHT22;73707;56.480;-2.840;2023-12-22T13:52:50;10.30;99.90
83729;DHT22;73707;56.480;-2.840;2023-12-22T13:55:17;10.30;99.90
83729;DHT22;73707;56.480;-2.840;2023-12-22T13:57:44;10.30;99.90
83729;DHT22;73707;56.480;-2.840;2023-12-22T14:02:48;10.20;99.80
83729;DHT22;73707;56.480;-2.840;2023-12-22T14:05:15;10.20;99.80
83729;DHT22;73707;56.480;-2.840;2023-12-22T14:07:41;10.20;99.90
83729;DHT22;73707;56.480;-2.840;2023-12-22T14:10:07;10.20;99.70
83729;DHT22;73707;56.480;-2.840;2023-12-22T14:12:33;10.20;99.80
83729;DHT22;73707;56.480;-2.840;2023-12-22T14:14:59;10.20;99.80
83729;DHT22;73707;56.480;-2.840;2023-12-22T14:17:25;10.20;99.70
83729;DHT22;73707;56.480;-2.840;2023-12-22T14:19:51;10.20;99.80
83729;DHT22;73707;56.480;-2.840;2023-12-22T14:22:16;10.20;99.70
83729;DHT22;73707;56.480;-2.840;2023-12-22T14:24:42;10.10;99.60
83729;DHT22;73707;56.480;-2.840;2023-12-22T14:27:08;10.20;99.50
83729;DHT22;73707;56.480;-2.840;2023-12-22T14:29:34;10.20;99.60
83729;DHT22;73707;56.480;-2.840;2023-12-22T14:32:06;10.20;99.50
83729;DHT22;73707;56.480;-2.840;2023-12-22T14:34:34;10.20;99.70
83729;DHT22;73707;56.480;-2.840;2023-12-22T14:37:00;10.10;99.20
83729;DHT22;73707;56.480;-2.840;2023-12-22T14:39:26;10.10;99.40
83729;DHT22;73707;56.480;-2.840;2023-12-22T14:41:52;10.10;99.50
83729;DHT22;73707;56.480;-2.840;2023-12-22T14:44:18;10.10;99.40
83729;DHT22;73707;56.480;-2.840;2023-12-22T14:46:43;10.00;99.30
83729;DHT22;73707;56.480;-2.840;2023-12-22T14:49:11;10.00;99.10
83729;DHT22;73707;56.480;-2.840;2023-12-22T14:51:37;10.00;99.10
83729;DHT22;73707;56.480;-2.840;2023-12-22T14:54:06;10.00;99.10
83729;DHT22;73707;56.480;-2.840;2023-12-22T14:56:32;10.00;99.00
83729;DHT22;73707;56.480;-2.840;2023-12-22T14:58:58;10.00;99.10
83729;DHT22;73707;56.480;-2.840;2023-12-22T15:01:24;10.00;98.90
83729;DHT22;73707;56.480;-2.840;2023-12-22T15:03:50;10.00;99.10
83729;DHT22;73707;56.480;-2.840;2023-12-22T15:06:16;9.90;99.00
83729;DHT22;73707;56.480;-2.840;2023-12-22T15:08:42;9.90;99.10
83729;DHT22;73707;56.480;-2.840;2023-12-22T15:11:07;9.90;98.90
83729;DHT22;73707;56.480;-2.840;2023-12-22T15:13:34;9.90;98.90
83729;DHT22;73707;56.480;-2.840;2023-12-22T15:16:10;9.90;98.80
83729;DHT22;73707;56.480;-2.840;2023-12-22T15:18:35;9.90;98.90
83729;DHT22;73707;56.480;-2.840;2023-12-22T15:21:01;9.80;98.80
83729;DHT22;73707;56.480;-2.840;2023-12-22T15:23:27;9.80;98.80
83729;DHT22;73707;56.480;-2.840;2023-12-22T15:25:52;9.80;98.70
83729;DHT22;73707;56.480;-2.840;2023-12-22T15:28:18;9.80;98.40
83729;DHT22;73707;56.480;-2.840;2023-12-22T15:30:44;9.80;98.60
83729;DHT22;73707;56.480;-2.840;2023-12-22T15:33:09;9.70;98.60